sensor_id;sensor_type;location;lat;lon;timestamp;P1;durP1;ratioP1;P2;durP2;ratioP2
51489;SDS011;57752;53.574;9.736;2022-12-29T00:04:32;21.85;;;11.38;;
51489;SDS011;57752;53.574;9.736;2022-12-29T00:09:32;22.67;;;11.00;;
51489;SDS011;57752;53.574;9.736;2022-12-29T00:14:33;20.63;;;10.73;;
51489;SDS011;57752;53.574;9.736;2022-12-29T00:19:51;19.95;;;10.80;;
51489;SDS011;57752;53.574;9.736;2022-12-29T00:25:11;19.45;;;11.57;;
51489;SDS011;57752;53.574;9.736;2022-12-29T00:30:30;23.52;;;12.00;;
51489;SDS011;57752;53.574;9.736;2022-12-29T00:35:53;24.67;;;12.23;;
51489;SDS011;57752;53.574;9.736;2022-12-29T00:40:53;21.55;;;12.13;;
51489;SDS011;57752;53.574;9.736;2022-12-29T00:46:12;21.95;;;12.00;;
51489;SDS011;57752;53.574;9.736;2022-12-29T00:51:12;21.73;;;11.88;;
51489;SDS011;57752;53.574;9.736;2022-12-29T00:56:12;21.40;;;11.30;;
51489;SDS011;57752;53.574;9.736;2022-12-29T01:01:13;18.75;;;10.32;;
51489;SDS011;57752;53.574;9.736;2022-12-29T01:06:14;21.15;;;11.05;;
51489;SDS011;57752;53.574;9.736;2022-12-29T01:11:14;20.15;;;10.48;;
51489;SDS011;57752;53.574;9.736;2022-12-29T01:16:14;21.23;;;11.13;;
51489;SDS011;57752;53.574;9.736;2022-12-29T01:21:14;19.52;;;10.57;;
51489;SDS011;57752;53.574;9.736;2022-12-29T01:26:15;17.83;;;9.55;;
51489;SDS011;57752;53.574;9.736;2022-12-29T01:31:15;19.80;;;10.23;;
51489;SDS011;57752;53.574;9.736;2022-12-29T01:36:17;20.52;;;11.23;;
51489;SDS011;57752;53.574;9.736;2022-12-29T01:41:18;22.70;;;11.00;;
51489;SDS011;57752;53.574;9.736;2022-12-29T01:51:18;22.35;;;11.55;;
51489;SDS011;57752;53.574;9.736;2022-12-29T01:56:19;23.48;;;11.73;;
51489;SDS011;57752;53.574;9.736;2022-12-29T02:01:20;23.50;;;12.55;;
51489;SDS011;57752;53.574;9.736;2022-12-29T02:06:22;23.08;;;12.63;;
51489;SDS011;57752;53.574;9.736;2022-12-29T02:11:24;23.98;;;12.77;;
51489;SDS011;57752;53.574;9.736;2022-12-29T02:32:01;22.13;;;11.52;;
51489;SDS011;57752;53.574;9.736;2022-12-29T02:37:07;21.65;;;11.93;;
51489;SDS011;57752;53.574;9.736;2022-12-29T02:52:35;20.33;;;10.35;;
51489;SDS011;57752;53.574;9.736;2022-12-29T02:57:37;18.73;;;10.07;;
51489;SDS011;57752;53.574;9.736;2022-12-29T03:18:06;17.35;;;8.75;;
51489;SDS011;57752;53.574;9.736;2022-12-29T03:23:10;17.10;;;9.68;;
51489;SDS011;57752;53.574;9.736;2022-12-29T03:28:12;18.15;;;9.32;;
51489;SDS011;57752;53.574;9.736;2022-12-29T03:33:15;17.80;;;8.88;;
51489;SDS011;57752;53.574;9.736;2022-12-29T03:43:16;18.25;;;8.82;;
51489;SDS011;57752;53.574;9.736;2022-12-29T03:48:17;16.90;;;8.95;;
51489;SDS011;57752;53.574;9.736;2022-12-29T03:53:17;16.83;;;8.85;;
51489;SDS011;57752;53.574;9.736;2022-12-29T03:58:17;17.23;;;8.50;;
51489;SDS011;57752;53.574;9.736;2022-12-29T04:03:17;16.23;;;8.38;;
51489;SDS011;57752;53.574;9.736;2022-12-29T04:08:17;17.02;;;8.80;;
51489;SDS011;57752;53.574;9.736;2022-12-29T04:13:17;16.40;;;8.73;;
51489;SDS011;57752;53.574;9.736;2022-12-29T04:18:18;16.77;;;8.18;;
51489;SDS011;57752;53.574;9.736;2022-12-29T04:23:18;14.57;;;7.53;;
51489;SDS011;57752;53.574;9.736;2022-12-29T04:28:18;13.30;;;7.55;;
51489;SDS011;57752;53.574;9.736;2022-12-29T04:33:18;14.48;;;7.22;;
51489;SDS011;57752;53.574;9.736;2022-12-29T04:38:18;12.60;;;6.50;;
51489;SDS011;57752;53.574;9.736;2022-12-29T04:43:18;14.52;;;6.15;;
51489;SDS011;57752;53.574;9.736;2022-12-29T04:48:19;12.57;;;6.28;;
51489;SDS011;57752;53.574;9.736;2022-12-29T04:53:19;14.45;;;6.72;;
51489;SDS011;57752;53.574;9.736;2022-12-29T04:58:20;12.77;;;6.40;;
51489;SDS011;57752;53.574;9.736;2022-12-29T05:03:21;13.65;;;6.13;;
51489;SDS011;57752;53.574;9.736;2022-12-29T05:08:21;13.00;;;6.38;;
51489;SDS011;57752;53.574;9.736;2022-12-29T05:13:21;13.55;;;6.13;;
51489;SDS011;57752;53.574;9.736;2022-12-29T05:18:21;13.68;;;6.07;;
51489;SDS011;57752;53.574;9.736;2022-12-29T05:23:22;13.30;;;6.20;;
51489;SDS011;57752;53.574;9.736;2022-12-29T05:28:22;15.40;;;7.75;;
51489;SDS011;57752;53.574;9.736;2022-12-29T05:33:22;15.43;;;7.93;;
51489;SDS011;57752;53.574;9.736;2022-12-29T05:38:22;15.25;;;7.63;;
51489;SDS011;57752;53.574;9.736;2022-12-29T05:43:23;16.08;;;7.45;;
51489;SDS011;57752;53.574;9.736;2022-12-29T05:48:23;12.85;;;6.65;;
51489;SDS011;57752;53.574;9.736;2022-12-29T05:53:23;15.38;;;7.18;;
51489;SDS011;57752;53.574;9.736;2022-12-29T05:58:23;12.82;;;6.30;;
51489;SDS011;57752;53.574;9.736;2022-12-29T06:03:23;13.82;;;6.30;;
51489;SDS011;57752;53.574;9.736;2022-12-29T06:08:24;13.07;;;6.07;;
51489;SDS011;57752;53.574;9.736;2022-12-29T06:13:24;12.00;;;5.55;;
51489;SDS011;57752;53.574;9.736;2022-12-29T06:18:24;12.93;;;5.70;;
51489;SDS011;57752;53.574;9.736;2022-12-29T06:23:24;11.70;;;5.55;;
51489;SDS011;57752;53.574;9.736;2022-12-29T06:28:24;11.27;;;5.07;;
51489;SDS011;57752;53.574;9.736;2022-12-29T06:33:24;11.70;;;5.05;;
51489;SDS011;57752;53.574;9.736;2022-12-29T06:38:25;11.52;;;5.20;;
51489;SDS011;57752;53.574;9.736;2022-12-29T06:43:25;12.70;;;5.75;;
51489;SDS011;57752;53.574;9.736;2022-12-29T06:48:25;12.23;;;5.68;;
51489;SDS011;57752;53.574;9.736;2022-12-29T06:53:25;11.20;;;5.70;;
51489;SDS011;57752;53.574;9.736;2022-12-29T06:58:25;12.95;;;5.65;;
51489;SDS011;57752;53.574;9.736;2022-12-29T07:03:25;12.60;;;6.25;;
51489;SDS011;57752;53.574;9.736;2022-12-29T07:08:26;14.73;;;6.43;;
51489;SDS011;57752;53.574;9.736;2022-12-29T07:13:26;13.77;;;6.07;;
51489;SDS011;57752;53.574;9.736;2022-12-29T07:18:26;12.05;;;5.82;;
51489;SDS011;57752;53.574;9.736;2022-12-29T07:23:26;14.27;;;6.18;;
51489;SDS011;57752;53.574;9.736;2022-12-29T07:28:26;15.15;;;6.45;;
51489;SDS011;57752;53.574;9.736;2022-12-29T07:33:29;13.25;;;6.15;;
51489;SDS011;57752;53.574;9.736;2022-12-29T07:38:30;14.10;;;6.13;;
51489;SDS011;57752;53.574;9.736;2022-12-29T07:43:30;12.20;;;5.85;;
51489;SDS011;57752;53.574;9.736;2022-12-29T07:48:30;12.73;;;5.00;;
51489;SDS011;57752;53.574;9.736;2022-12-29T07:53:30;13.90;;;5.28;;
51489;SDS011;57752;53.574;9.736;2022-12-29T07:58:31;13.40;;;5.38;;
51489;SDS011;57752;53.574;9.736;2022-12-29T08:03:31;12.57;;;5.32;;
51489;SDS011;57752;53.574;9.736;2022-12-29T08:08:31;13.52;;;5.45;;
51489;SDS011;57752;53.574;9.736;2022-12-29T08:13:31;11.20;;;4.88;;
51489;SDS011;57752;53.574;9.736;2022-12-29T08:18:31;9.50;;;3.85;;
51489;SDS011;57752;53.574;9.736;2022-12-29T08:23:31;10.55;;;3.90;;
51489;SDS011;57752;53.574;9.736;2022-12-29T08:28:32;11.88;;;4.20;;
51489;SDS011;57752;53.574;9.736;2022-12-29T08:33:32;11.18;;;4.32;;
51489;SDS011;57752;53.574;9.736;2022-12-29T08:38:32;10.55;;;4.15;;
51489;SDS011;57752;53.574;9.736;2022-12-29T08:43:33;10.50;;;4.10;;
51489;SDS011;57752;53.574;9.736;2022-12-29T08:48:33;17.67;;;5.38;;
51489;SDS011;57752;53.574;9.736;2022-12-29T08:53:33;12.13;;;4.00;;
51489;SDS011;57752;53.574;9.736;2022-12-29T08:58:33;13.00;;;3.50;;
51489;SDS011;57752;53.574;9.736;2022-12-29T09:03:33;10.60;;;3.45;;
51489;SDS011;57752;53.574;9.736;2022-12-29T09:08:34;10.10;;;2.88;;
51489;SDS011;57752;53.574;9.736;2022-12-29T09:13:34;9.27;;;3.00;;
51489;SDS011;57752;53.574;9.736;2022-12-29T09:18:34;8.15;;;2.58;;
51489;SDS011;57752;53.574;9.736;2022-12-29T09:23:34;10.27;;;2.97;;
51489;SDS011;57752;53.574;9.736;2022-12-29T09:28:35;11.43;;;2.72;;
51489;SDS011;57752;53.574;9.736;2022-12-29T09:33:35;10.70;;;2.70;;
51489;SDS011;57752;53.574;9.736;2022-12-29T09:38:35;10.52;;;2.55;;
51489;SDS011;57752;53.574;9.736;2022-12-29T09:48:40;11.98;;;2.80;;
51489;SDS011;57752;53.574;9.736;2022-12-29T09:58:44;9.48;;;2.47;;
51489;SDS011;57752;53.574;9.736;2022-12-29T10:03:49;12.73;;;2.80;;
51489;SDS011;57752;53.574;9.736;2022-12-29T10:18:53;11.73;;;2.85;;
51489;SDS011;57752;53.574;9.736;2022-12-29T10:23:57;10.85;;;3.25;;
51489;SDS011;57752;53.574;9.736;2022-12-29T10:29:05;14.48;;;4.47;;
51489;SDS011;57752;53.574;9.736;2022-12-29T10:34:10;13.15;;;2.80;;
51489;SDS011;57752;53.574;9.736;2022-12-29T10:49:19;13.13;;;3.20;;
51489;SDS011;57752;53.574;9.736;2022-12-29T10:54:21;13.02;;;3.08;;
51489;SDS011;57752;53.574;9.736;2022-12-29T10:59:28;14.90;;;2.97;;
51489;SDS011;57752;53.574;9.736;2022-12-29T11:09:48;9.00;;;2.65;;
51489;SDS011;57752;53.574;9.736;2022-12-29T11:15:02;10.25;;;2.63;;
51489;SDS011;57752;53.574;9.736;2022-12-29T11:20:19;14.70;;;2.50;;
51489;SDS011;57752;53.574;9.736;2022-12-29T11:25:19;9.23;;;2.35;;
51489;SDS011;57752;53.574;9.736;2022-12-29T11:30:30;14.07;;;2.50;;
51489;SDS011;57752;53.574;9.736;2022-12-29T11:35:34;7.90;;;2.25;;
51489;SDS011;57752;53.574;9.736;2022-12-29T11:40:37;9.90;;;2.45;;
51489;SDS011;57752;53.574;9.736;2022-12-29T11:45:38;8.77;;;2.25;;
51489;SDS011;57752;53.574;9.736;2022-12-29T11:50:51;8.40;;;2.13;;
51489;SDS011;57752;53.574;9.736;2022-12-29T11:55:53;9.30;;;2.60;;
51489;SDS011;57752;53.574;9.736;2022-12-29T12:00:54;10.93;;;2.43;;
51489;SDS011;57752;53.574;9.736;2022-12-29T12:05:56;10.82;;;3.10;;
51489;SDS011;57752;53.574;9.736;2022-12-29T12:11:05;10.57;;;2.35;;
51489;SDS011;57752;53.574;9.736;2022-12-29T12:16:11;10.35;;;2.58;;
51489;SDS011;57752;53.574;9.736;2022-12-29T12:26:34;10.95;;;2.70;;
51489;SDS011;57752;53.574;9.736;2022-12-29T12:31:49;9.57;;;2.70;;
51489;SDS011;57752;53.574;9.736;2022-12-29T13:22:47;12.02;;;2.80;;
51489;SDS011;57752;53.574;9.736;2022-12-29T13:33:19;11.45;;;3.10;;
51489;SDS011;57752;53.574;9.736;2022-12-29T13:38:33;13.95;;;3.38;;
51489;SDS011;57752;53.574;9.736;2022-12-29T13:43:35;15.40;;;3.73;;
51489;SDS011;57752;53.574;9.736;2022-12-29T13:48:43;15.30;;;3.38;;
51489;SDS011;57752;53.574;9.736;2022-12-29T13:53:56;13.60;;;2.83;;
51489;SDS011;57752;53.574;9.736;2022-12-29T13:59:11;8.10;;;1.90;;
51489;SDS011;57752;53.574;9.736;2022-12-29T14:04:20;12.05;;;2.45;;
51489;SDS011;57752;53.574;9.736;2022-12-29T14:14:29;12.70;;;2.63;;
51489;SDS011;57752;53.574;9.736;2022-12-29T14:19:30;8.60;;;2.42;;
51489;SDS011;57752;53.574;9.736;2022-12-29T14:34:43;13.00;;;2.75;;
51489;SDS011;57752;53.574;9.736;2022-12-29T14:44:48;12.25;;;2.70;;
51489;SDS011;57752;53.574;9.736;2022-12-29T14:49:48;13.55;;;3.28;;
51489;SDS011;57752;53.574;9.736;2022-12-29T15:00:19;14.27;;;3.10;;
51489;SDS011;57752;53.574;9.736;2022-12-29T15:05:27;15.18;;;3.28;;
51489;SDS011;57752;53.574;9.736;2022-12-29T15:10:32;19.40;;;3.65;;
51489;SDS011;57752;53.574;9.736;2022-12-29T15:15:37;13.75;;;3.60;;
51489;SDS011;57752;53.574;9.736;2022-12-29T15:20:38;13.88;;;3.92;;
51489;SDS011;57752;53.574;9.736;2022-12-29T15:25:46;16.33;;;3.53;;
51489;SDS011;57752;53.574;9.736;2022-12-29T15:30:56;13.48;;;3.85;;
51489;SDS011;57752;53.574;9.736;2022-12-29T15:36:01;14.85;;;4.38;;
51489;SDS011;57752;53.574;9.736;2022-12-29T15:41:04;17.30;;;3.67;;
51489;SDS011;57752;53.574;9.736;2022-12-29T15:46:05;16.23;;;3.90;;
51489;SDS011;57752;53.574;9.736;2022-12-29T15:56:44;14.80;;;3.60;;
51489;SDS011;57752;53.574;9.736;2022-12-29T16:01:45;16.92;;;3.70;;
51489;SDS011;57752;53.574;9.736;2022-12-29T16:06:53;22.38;;;3.83;;
51489;SDS011;57752;53.574;9.736;2022-12-29T16:11:55;11.63;;;3.42;;
51489;SDS011;57752;53.574;9.736;2022-12-29T16:16:57;14.23;;;3.97;;
51489;SDS011;57752;53.574;9.736;2022-12-29T16:21:58;16.13;;;3.88;;
51489;SDS011;57752;53.574;9.736;2022-12-29T16:32:21;13.30;;;4.00;;
51489;SDS011;57752;53.574;9.736;2022-12-29T16:37:32;17.75;;;4.30;;
51489;SDS011;57752;53.574;9.736;2022-12-29T16:42:33;19.63;;;4.88;;
51489;SDS011;57752;53.574;9.736;2022-12-29T16:47:35;20.03;;;5.37;;
51489;SDS011;57752;53.574;9.736;2022-12-29T16:52:35;19.50;;;4.63;;
51489;SDS011;57752;53.574;9.736;2022-12-29T16:57:35;20.98;;;4.95;;
51489;SDS011;57752;53.574;9.736;2022-12-29T17:02:36;19.42;;;5.72;;
51489;SDS011;57752;53.574;9.736;2022-12-29T17:07:45;18.98;;;4.70;;
51489;SDS011;57752;53.574;9.736;2022-12-29T17:12:47;21.65;;;4.97;;
51489;SDS011;57752;53.574;9.736;2022-12-29T17:17:47;22.70;;;5.32;;
51489;SDS011;57752;53.574;9.736;2022-12-29T17:22:49;20.70;;;5.20;;
51489;SDS011;57752;53.574;9.736;2022-12-29T17:27:59;21.02;;;5.68;;
51489;SDS011;57752;53.574;9.736;2022-12-29T17:33:03;17.20;;;5.93;;
51489;SDS011;57752;53.574;9.736;2022-12-29T17:38:12;22.60;;;5.70;;
51489;SDS011;57752;53.574;9.736;2022-12-29T17:43:16;20.40;;;5.43;;
51489;SDS011;57752;53.574;9.736;2022-12-29T17:48:16;24.27;;;6.13;;
51489;SDS011;57752;53.574;9.736;2022-12-29T17:53:24;18.88;;;5.95;;
51489;SDS011;57752;53.574;9.736;2022-12-29T17:58:28;23.58;;;5.97;;
51489;SDS011;57752;53.574;9.736;2022-12-29T18:03:34;17.38;;;6.07;;
51489;SDS011;57752;53.574;9.736;2022-12-29T18:08:35;19.13;;;5.93;;
51489;SDS011;57752;53.574;9.736;2022-12-29T18:13:35;19.27;;;6.20;;
51489;SDS011;57752;53.574;9.736;2022-12-29T18:18:35;21.77;;;6.68;;
51489;SDS011;57752;53.574;9.736;2022-12-29T18:23:35;16.15;;;6.05;;
51489;SDS011;57752;53.574;9.736;2022-12-29T18:28:35;15.98;;;6.47;;
51489;SDS011;57752;53.574;9.736;2022-12-29T18:33:35;24.00;;;7.93;;
51489;SDS011;57752;53.574;9.736;2022-12-29T18:38:36;16.13;;;6.40;;
51489;SDS011;57752;53.574;9.736;2022-12-29T18:43:36;23.70;;;6.88;;
51489;SDS011;57752;53.574;9.736;2022-12-29T18:48:36;21.35;;;7.18;;
51489;SDS011;57752;53.574;9.736;2022-12-29T18:53:36;22.75;;;8.10;;
51489;SDS011;57752;53.574;9.736;2022-12-29T18:58:37;19.90;;;6.90;;
51489;SDS011;57752;53.574;9.736;2022-12-29T19:03:37;23.20;;;7.50;;
51489;SDS011;57752;53.574;9.736;2022-12-29T19:08:37;21.30;;;6.60;;
51489;SDS011;57752;53.574;9.736;2022-12-29T19:13:38;21.27;;;7.38;;
51489;SDS011;57752;53.574;9.736;2022-12-29T19:18:39;18.90;;;7.30;;
51489;SDS011;57752;53.574;9.736;2022-12-29T19:23:39;23.85;;;7.82;;
51489;SDS011;57752;53.574;9.736;2022-12-29T19:28:39;20.02;;;7.50;;
51489;SDS011;57752;53.574;9.736;2022-12-29T19:33:39;24.23;;;7.40;;
51489;SDS011;57752;53.574;9.736;2022-12-29T19:38:39;28.13;;;8.10;;
51489;SDS011;57752;53.574;9.736;2022-12-29T19:43:39;25.35;;;7.93;;
51489;SDS011;57752;53.574;9.736;2022-12-29T19:48:40;21.48;;;6.38;;
51489;SDS011;57752;53.574;9.736;2022-12-29T19:53:40;23.30;;;8.10;;
51489;SDS011;57752;53.574;9.736;2022-12-29T19:58:40;22.50;;;6.35;;
51489;SDS011;57752;53.574;9.736;2022-12-29T20:03:40;19.77;;;6.53;;
51489;SDS011;57752;53.574;9.736;2022-12-29T20:08:41;13.77;;;4.30;;
51489;SDS011;57752;53.574;9.736;2022-12-29T20:13:41;13.50;;;3.92;;
51489;SDS011;57752;53.574;9.736;2022-12-29T20:18:41;11.27;;;3.50;;
51489;SDS011;57752;53.574;9.736;2022-12-29T20:23:42;11.45;;;3.00;;
51489;SDS011;57752;53.574;9.736;2022-12-29T20:28:43;8.45;;;2.75;;
51489;SDS011;57752;53.574;9.736;2022-12-29T20:33:44;10.02;;;3.00;;
51489;SDS011;57752;53.574;9.736;2022-12-29T20:38:45;9.77;;;2.58;;
51489;SDS011;57752;53.574;9.736;2022-12-29T20:43:45;11.43;;;2.85;;
51489;SDS011;57752;53.574;9.736;2022-12-29T20:48:45;12.05;;;2.60;;
51489;SDS011;57752;53.574;9.736;2022-12-29T20:53:46;15.75;;;2.97;;
51489;SDS011;57752;53.574;9.736;2022-12-29T20:58:46;14.30;;;3.38;;
51489;SDS011;57752;53.574;9.736;2022-12-29T21:03:47;18.63;;;3.97;;
51489;SDS011;57752;53.574;9.736;2022-12-29T21:08:47;17.98;;;3.67;;
51489;SDS011;57752;53.574;9.736;2022-12-29T21:13:48;10.48;;;3.30;;
51489;SDS011;57752;53.574;9.736;2022-12-29T21:18:48;12.80;;;3.17;;
51489;SDS011;57752;53.574;9.736;2022-12-29T21:23:49;10.90;;;2.97;;
51489;SDS011;57752;53.574;9.736;2022-12-29T21:28:49;12.85;;;3.17;;
51489;SDS011;57752;53.574;9.736;2022-12-29T21:33:50;11.57;;;2.63;;
51489;SDS011;57752;53.574;9.736;2022-12-29T21:38:50;14.13;;;3.10;;
51489;SDS011;57752;53.574;9.736;2022-12-29T21:43:51;13.07;;;2.67;;
51489;SDS011;57752;53.574;9.736;2022-12-29T21:49:10;11.98;;;3.38;;
51489;SDS011;57752;53.574;9.736;2022-12-29T21:54:10;11.93;;;2.90;;
51489;SDS011;57752;53.574;9.736;2022-12-29T21:59:29;12.68;;;3.45;;
51489;SDS011;57752;53.574;9.736;2022-12-29T22:04:48;11.07;;;3.58;;
51489;SDS011;57752;53.574;9.736;2022-12-29T22:10:07;17.88;;;4.15;;
51489;SDS011;57752;53.574;9.736;2022-12-29T22:15:27;13.00;;;4.00;;
51489;SDS011;57752;53.574;9.736;2022-12-29T22:20:28;12.70;;;4.45;;
51489;SDS011;57752;53.574;9.736;2022-12-29T22:25:29;17.00;;;4.28;;
51489;SDS011;57752;53.574;9.736;2022-12-29T22:30:29;14.77;;;4.70;;
51489;SDS011;57752;53.574;9.736;2022-12-29T22:35:29;19.80;;;4.97;;
51489;SDS011;57752;53.574;9.736;2022-12-29T22:40:30;17.48;;;5.35;;
51489;SDS011;57752;53.574;9.736;2022-12-29T22:45:30;23.13;;;5.82;;
51489;SDS011;57752;53.574;9.736;2022-12-29T22:50:30;20.67;;;6.13;;
51489;SDS011;57752;53.574;9.736;2022-12-29T22:55:30;16.75;;;5.80;;
51489;SDS011;57752;53.574;9.736;2022-12-29T23:00:30;18.77;;;5.60;;
51489;SDS011;57752;53.574;9.736;2022-12-29T23:05:30;21.17;;;5.75;;
51489;SDS011;57752;53.574;9.736;2022-12-29T23:10:31;17.42;;;4.43;;
51489;SDS011;57752;53.574;9.736;2022-12-29T23:15:32;15.95;;;4.50;;
51489;SDS011;57752;53.574;9.736;2022-12-29T23:20:32;14.73;;;4.10;;
51489;SDS011;57752;53.574;9.736;2022-12-29T23:25:34;16.65;;;4.85;;
51489;SDS011;57752;53.574;9.736;2022-12-29T23:30:34;19.43;;;5.43;;
51489;SDS011;57752;53.574;9.736;2022-12-29T23:35:34;18.58;;;6.50;;
51489;SDS011;57752;53.574;9.736;2022-12-29T23:40:34;21.00;;;6.32;;
51489;SDS011;57752;53.574;9.736;2022-12-29T23:45:35;21.52;;;5.85;;
51489;SDS011;57752;53.574;9.736;2022-12-29T23:50:37;20.80;;;5.97;;
51489;SDS011;57752;53.574;9.736;2022-12-29T23:55:40;20.15;;;6.30;;
